Time;durP1;ratioP1;P1;durP2;ratioP2;P2;SDS_P1;SDS_P2;PMS_P1;PMS_P2;Temp;Humidity;BMP_temperature;BMP_pressure;BME280_temperature;BME280_humidity;BME280_pressure;Samples;Min_cycle;Max_cycle;Signal;HPM_P1;HPM_P2
2021/05/14 00:00:53;;;;;;;5.57;0.90;;;;;;;13.81;66.87;100190.03;4971293;28;20422;-66
2021/05/14 00:03:21;;;;;;;2.08;0.70;;;;;;;14.44;65.33;100191.19;4971110;28;20058;-68
2021/05/14 00:05:51;;;;;;;6.38;1.20;;;;;;;13.86;66.34;100192.53;4972173;28;20053;-71
2021/05/14 00:08:18;;;;;;;4.50;0.80;;;;;;;14.15;66.15;100194.25;4975303;28;20050;-68
2021/05/14 00:10:46;;;;;;;5.75;1.27;;;;;;;14.07;64.95;100184.91;4974480;28;20058;-71
2021/05/14 00:13:14;;;;;;;5.63;0.93;;;;;;;14.15;65.05;100189.53;4975081;28;20513;-68
2021/05/14 00:15:41;;;;;;;6.10;1.35;;;;;;;14.30;65.28;100191.56;4974375;28;20398;-69
2021/05/14 00:18:09;;;;;;;5.72;1.15;;;;;;;14.00;65.58;100189.44;4957844;28;20058;-68
2021/05/14 00:20:36;;;;;;;7.70;1.23;;;;;;;13.91;65.50;100183.22;4974606;28;20055;-64
2021/05/14 00:23:05;;;;;;;4.75;1.10;;;;;;;14.07;64.60;100182.13;4973893;28;20372;-70
2021/05/14 00:25:33;;;;;;;3.88;1.17;;;;;;;14.33;64.96;100176.22;4974051;28;20047;-71
2021/05/14 00:28:01;;;;;;;2.95;0.90;;;;;;;14.04;64.58;100180.06;4974613;28;20062;-69
2021/05/14 00:30:32;;;;;;;5.07;1.38;;;;;;;14.16;65.43;100174.50;4974260;28;20526;-66
2021/05/14 00:32:59;;;;;;;3.13;1.10;;;;;;;14.12;65.10;100170.81;4957580;28;20054;-67
2021/05/14 00:35:27;;;;;;;4.93;0.95;;;;;;;14.07;64.35;100173.03;4974710;28;20065;-67
2021/05/14 00:37:54;;;;;;;6.38;1.13;;;;;;;14.16;64.78;100170.91;4973785;28;20479;-67
2021/05/14 00:40:21;;;;;;;4.30;1.17;;;;;;;14.34;63.97;100178.66;4956434;28;20054;-66
2021/05/14 00:42:50;;;;;;;5.75;1.13;;;;;;;14.18;64.60;100177.72;4973107;28;20055;-70
2021/05/14 00:45:18;;;;;;;2.78;0.98;;;;;;;14.26;64.40;100176.81;4974661;28;20042;-66
2021/05/14 00:47:46;;;;;;;4.07;1.10;;;;;;;14.20;63.80;100182.91;4957680;28;20122;-68
2021/05/14 00:50:13;;;;;;;3.72;1.05;;;;;;;14.39;63.10;100180.34;4973822;28;20058;-68
2021/05/14 00:52:41;;;;;;;6.13;1.20;;;;;;;14.21;62.89;100174.25;4973461;28;20062;-64
2021/05/14 00:55:09;;;;;;;6.22;1.10;;;;;;;14.02;63.58;100173.25;4957565;28;20447;-68
2021/05/14 00:57:37;;;;;;;4.28;1.13;;;;;;;14.17;63.19;100183.63;4973085;28;20058;-66
2021/05/14 01:00:05;;;;;;;4.43;1.20;;;;;;;14.39;63.84;100185.88;4940195;28;20463;-66
2021/05/14 01:02:33;;;;;;;5.85;1.27;;;;;;;14.23;64.11;100190.53;4973085;28;20062;-65
2021/05/14 01:05:00;;;;;;;3.95;1.45;;;;;;;14.08;62.11;100192.06;4955987;28;20057;-68
2021/05/14 01:07:28;;;;;;;4.30;0.90;;;;;;;14.14;64.62;100189.88;4974091;28;20057;-64
2021/05/14 01:09:55;;;;;;;3.97;1.20;;;;;;;14.11;63.05;100190.56;4940595;28;20051;-70
2021/05/14 01:12:23;;;;;;;6.60;1.25;;;;;;;13.68;64.21;100193.97;4972818;28;20047;-68
2021/05/14 01:14:50;;;;;;;6.20;1.42;;;;;;;13.91;64.51;100191.53;4973819;28;20051;-69
2021/05/14 01:17:17;;;;;;;2.88;1.00;;;;;;;13.99;64.94;100194.16;4973368;28;20062;-68
2021/05/14 01:19:45;;;;;;;3.20;0.82;;;;;;;14.13;64.28;100191.00;4956787;28;20046;-69
2021/05/14 01:22:12;;;;;;;1.77;0.90;;;;;;;14.04;63.33;100191.16;4956338;28;20439;-66
2021/05/14 01:24:40;;;;;;;3.78;0.93;;;;;;;14.10;63.55;100189.75;4973727;28;20054;-66
2021/05/14 01:27:07;;;;;;;3.60;1.20;;;;;;;13.65;63.26;100193.84;4974068;28;20054;-68
2021/05/14 01:29:34;;;;;;;4.15;1.30;;;;;;;13.49;65.54;100188.19;4974832;28;20058;-68
2021/05/14 01:32:02;;;;;;;3.47;1.05;;;;;;;13.34;65.53;100188.88;4973376;28;20051;-66
2021/05/14 01:34:30;;;;;;;5.22;1.42;;;;;;;13.55;65.69;100190.38;4974281;28;20062;-67
2021/05/14 01:36:57;;;;;;;6.65;1.45;;;;;;;13.44;65.90;100188.44;4956165;28;20062;-66
2021/05/14 01:39:26;;;;;;;3.38;1.17;;;;;;;13.41;64.47;100189.91;4973826;28;20501;-70
2021/05/14 01:41:54;;;;;;;7.93;1.42;;;;;;;13.75;65.76;100193.38;4973532;28;20047;-69
2021/05/14 01:44:22;;;;;;;4.28;1.35;;;;;;;13.75;65.34;100193.38;4956178;28;20046;-68
2021/05/14 01:46:50;;;;;;;3.05;1.20;;;;;;;13.89;64.56;100193.81;4940591;28;20066;-65
2021/05/14 01:49:19;;;;;;;3.72;1.25;;;;;;;13.68;64.90;100185.66;4956055;28;20138;-67
2021/05/14 01:51:47;;;;;;;5.40;1.67;;;;;;;13.79;63.40;100189.56;4955563;28;20076;-67
2021/05/14 01:54:15;;;;;;;4.25;1.20;;;;;;;13.69;65.41;100190.03;4956467;28;20051;-65
2021/05/14 01:56:50;;;;;;;4.40;1.42;;;;;;;13.45;65.40;100185.31;4955622;28;20058;-65
2021/05/14 01:59:17;;;;;;;5.63;1.50;;;;;;;13.79;64.68;100192.31;4973255;28;20046;-64
2021/05/14 02:01:45;;;;;;;7.03;1.40;;;;;;;13.59;63.19;100179.44;4973203;28;20053;-64
2021/05/14 02:04:12;;;;;;;4.53;1.30;;;;;;;13.70;64.67;100183.34;4972702;28;20051;-63
2021/05/14 02:06:40;;;;;;;5.35;1.25;;;;;;;13.41;64.84;100178.84;4972499;28;20057;-65
2021/05/14 02:09:08;;;;;;;5.28;1.65;;;;;;;13.23;65.25;100180.22;4972488;28;20506;-65
2021/05/14 02:11:35;;;;;;;4.75;1.35;;;;;;;13.23;65.76;100182.97;4972527;28;20058;-65
2021/05/14 02:14:03;;;;;;;9.13;2.28;;;;;;;13.27;63.77;100170.09;4954621;28;20046;-64
2021/05/14 02:16:30;;;;;;;7.00;1.42;;;;;;;13.10;64.67;100169.47;4973284;28;20154;-64
2021/05/14 02:18:59;;;;;;;5.53;1.70;;;;;;;12.97;65.88;100176.91;4972854;28;20063;-66
2021/05/14 02:21:27;;;;;;;6.78;1.55;;;;;;;13.19;64.12;100171.00;4972438;28;20055;-64
2021/05/14 02:23:54;;;;;;;2.13;0.90;;;;;;;12.93;65.10;100170.47;4955281;28;20050;-66
2021/05/14 02:26:22;;;;;;;5.45;1.23;;;;;;;13.29;65.72;100169.72;4972028;28;20047;-65
2021/05/14 02:28:49;;;;;;;8.02;1.45;;;;;;;12.97;65.02;100170.59;4971758;28;20059;-64
2021/05/14 02:31:16;;;;;;;4.43;1.40;;;;;;;12.88;66.23;100170.69;4972308;28;20058;-64
2021/05/14 02:33:44;;;;;;;3.60;1.30;;;;;;;13.21;65.49;100170.66;4972379;28;20070;-65
2021/05/14 02:36:11;;;;;;;5.72;1.50;;;;;;;13.12;64.63;100170.75;4971791;28;20051;-65
2021/05/14 02:38:39;;;;;;;5.70;1.60;;;;;;;13.10;66.28;100163.94;4972244;28;20054;-65
2021/05/14 02:41:10;;;;;;;4.90;1.50;;;;;;;12.88;66.09;100167.94;4972754;28;20051;-65
2021/05/14 02:43:39;;;;;;;9.88;1.42;;;;;;;13.02;65.18;100159.34;4954622;28;20050;-67
2021/05/14 02:46:07;;;;;;;5.80;1.65;;;;;;;13.46;65.03;100159.25;4971764;28;20065;-65
2021/05/14 02:48:34;;;;;;;3.83;1.30;;;;;;;13.70;64.34;100160.41;4953889;28;20046;-65
2021/05/14 02:51:02;;;;;;;7.13;1.40;;;;;;;13.50;64.38;100157.41;4938628;28;20054;-68
2021/05/14 02:53:29;;;;;;;5.75;1.40;;;;;;;13.61;64.93;100159.72;4972471;28;20054;-65
2021/05/14 02:55:57;;;;;;;4.68;1.40;;;;;;;13.38;63.08;100156.59;4954609;28;20055;-65
2021/05/14 02:58:24;;;;;;;6.05;1.40;;;;;;;13.49;65.26;100158.56;4972057;28;20410;-66
2021/05/14 03:00:52;;;;;;;6.28;1.20;;;;;;;13.99;62.92;100155.41;4939302;28;20058;-65
2021/05/14 03:03:20;;;;;;;5.88;1.35;;;;;;;13.95;62.97;100156.41;4971653;28;20055;-66
2021/05/14 03:05:47;;;;;;;5.53;1.45;;;;;;;13.62;62.03;100155.78;4971621;28;20047;-66
2021/05/14 03:08:15;;;;;;;7.43;2.10;;;;;;;13.57;63.16;100157.66;4954293;28;20050;-66
2021/05/14 03:10:42;;;;;;;6.78;1.63;;;;;;;13.36;63.42;100147.84;4971961;28;20047;-65
2021/05/14 03:13:10;;;;;;;3.95;1.40;;;;;;;13.40;62.84;100160.66;4954839;28;20057;-68
2021/05/14 03:15:39;;;;;;;7.65;1.75;;;;;;;13.51;63.18;100156.25;4955098;28;20043;-69
2021/05/14 03:18:07;;;;;;;7.67;1.67;;;;;;;13.25;63.37;100158.56;4972015;28;20054;-67
2021/05/14 03:20:34;;;;;;;4.95;1.65;;;;;;;13.22;65.43;100156.47;4971924;28;20058;-67
2021/05/14 03:23:02;;;;;;;3.97;1.40;;;;;;;13.48;64.27;100154.19;4971267;28;20057;-66
2021/05/14 03:25:30;;;;;;;10.15;1.88;;;;;;;13.64;63.53;100159.00;4934844;29;20063;-66
2021/05/14 03:27:58;;;;;;;8.88;1.80;;;;;;;13.39;63.08;100156.25;4951514;28;20514;-66
2021/05/14 03:30:25;;;;;;;6.78;1.50;;;;;;;13.62;64.24;100161.31;4952121;28;20062;-63
2021/05/14 03:32:52;;;;;;;7.68;2.03;;;;;;;13.10;64.81;100159.25;4953006;29;20181;-67
2021/05/14 03:35:20;;;;;;;4.72;1.50;;;;;;;13.51;63.80;100161.00;4951546;29;20488;-67
2021/05/14 03:37:48;;;;;;;6.32;1.40;;;;;;;13.42;63.96;100160.31;4952099;29;20511;-64
2021/05/14 03:40:34;;;;;;;7.78;2.10;;;;;;;13.41;64.41;100162.25;4952432;28;20052;-67
2021/05/14 03:43:04;;;;;;;5.05;1.65;;;;;;;13.61;63.59;100176.31;4939123;29;20051;-67
2021/05/14 03:45:32;;;;;;;10.07;1.87;;;;;;;13.44;64.92;100169.06;4938379;29;20408;-64
2021/05/14 03:48:00;;;;;;;7.68;1.50;;;;;;;13.25;64.33;100166.84;4956385;28;20055;-66
2021/05/14 03:50:31;;;;;;;5.15;1.85;;;;;;;13.35;65.47;100169.16;4958068;28;20051;-65
2021/05/14 03:53:02;;;;;;;2.90;1.25;;;;;;;13.57;65.27;100165.94;4975181;28;20411;-65
2021/05/14 03:55:29;;;;;;;7.70;1.60;;;;;;;13.19;63.59;100161.91;4958763;28;20054;-64
2021/05/14 03:57:57;;;;;;;6.88;1.70;;;;;;;13.16;64.15;100168.13;4974609;28;20495;-63
2021/05/14 04:00:25;;;;;;;6.88;1.77;;;;;;;13.34;63.89;100166.75;4975612;28;20051;-64
2021/05/14 04:02:54;;;;;;;3.75;1.15;;;;;;;13.43;65.37;100165.50;4958304;28;20054;-64
2021/05/14 04:05:22;;;;;;;7.80;1.90;;;;;;;13.38;64.01;100174.00;4975148;28;20407;-64
2021/05/14 04:07:49;;;;;;;7.28;1.30;;;;;;;13.04;65.47;100174.41;4975299;28;20051;-67
2021/05/14 04:15:49;;;;;;;6.85;1.73;;;;;;;13.25;65.51;100177.91;4958279;28;20043;-64
2021/05/14 04:18:17;;;;;;;6.70;1.77;;;;;;;13.24;65.14;100169.97;4975327;28;20051;-66
2021/05/14 04:20:45;;;;;;;9.13;2.08;;;;;;;13.22;65.69;100175.84;4974386;28;20053;-64
2021/05/14 04:23:12;;;;;;;4.50;1.40;;;;;;;13.36;64.62;100179.09;4941231;28;20407;-66
2021/05/14 04:25:40;;;;;;;6.53;1.73;;;;;;;13.30;64.97;100172.16;4958094;28;20054;-66
2021/05/14 04:28:07;;;;;;;8.45;1.80;;;;;;;13.18;64.22;100169.38;4957321;28;20054;-66
2021/05/14 04:30:36;;;;;;;7.22;2.10;;;;;;;13.17;64.75;100173.31;4974795;28;20046;-64
2021/05/14 04:33:05;;;;;;;6.45;1.80;;;;;;;13.46;64.44;100164.78;4957941;28;20050;-65
2021/05/14 04:35:33;;;;;;;4.70;1.75;;;;;;;13.30;64.25;100174.91;4940787;28;20043;-65
2021/05/14 04:38:01;;;;;;;4.20;1.60;;;;;;;13.19;64.93;100173.78;4973963;28;20218;-63
2021/05/14 04:40:28;;;;;;;6.50;1.85;;;;;;;12.98;64.64;100169.44;4974506;28;20054;-64
2021/05/14 04:43:03;;;;;;;5.55;1.98;;;;;;;12.82;65.93;100176.75;4974494;28;20047;-65
2021/05/14 04:45:31;;;;;;;6.75;1.90;;;;;;;13.59;65.90;100168.38;4974065;28;20059;-66
2021/05/14 04:47:59;;;;;;;8.05;1.90;;;;;;;13.72;63.45;100174.69;4974024;28;20043;-68
2021/05/14 04:50:26;;;;;;;6.95;1.75;;;;;;;13.63;64.02;100174.00;4973607;28;20058;-66
2021/05/14 04:53:11;;;;;;;8.05;2.00;;;;;;;13.63;64.42;100176.78;4973702;28;20408;-65
2021/05/14 04:55:38;;;;;;;6.35;1.70;;;;;;;13.34;64.85;100172.28;4974299;28;20059;-67
2021/05/14 04:58:10;;;;;;;5.70;1.88;;;;;;;12.68;67.40;100171.53;4974459;28;20059;-66
2021/05/14 05:00:37;;;;;;;5.60;1.77;;;;;;;13.03;67.24;100177.53;4974394;28;20058;-67
2021/05/14 05:03:06;;;;;;;5.55;2.08;;;;;;;13.34;67.00;100175.84;4973332;28;20046;-64
2021/05/14 05:05:35;;;;;;;5.55;2.10;;;;;;;12.85;66.63;100187.16;4958945;28;20391;-64
2021/05/14 05:08:03;;;;;;;6.50;1.98;;;;;;;13.09;67.12;100184.47;4973401;28;20054;-66
2021/05/14 05:10:31;;;;;;;8.35;2.10;;;;;;;12.95;67.08;100187.53;4974006;28;20050;-67
2021/05/14 05:12:58;;;;;;;8.40;2.25;;;;;;;12.56;68.12;100176.22;4957038;28;20058;-67
2021/05/14 05:15:25;;;;;;;6.28;1.95;;;;;;;13.20;67.74;100183.66;4956701;28;20404;-64
2021/05/14 05:17:54;;;;;;;6.07;2.05;;;;;;;13.48;65.46;100184.63;4973855;28;20058;-64
2021/05/14 05:20:22;;;;;;;4.78;1.95;;;;;;;13.15;67.42;100181.13;4973253;28;20070;-64
2021/05/14 05:22:49;;;;;;;6.72;1.98;;;;;;;13.26;67.47;100181.50;4955734;28;20073;-63
2021/05/14 05:25:17;;;;;;;8.85;2.30;;;;;;;13.30;67.79;100187.97;4973506;28;20066;-63
2021/05/14 05:27:44;;;;;;;7.45;2.13;;;;;;;13.49;66.13;100185.44;4956655;28;20061;-66
2021/05/14 05:30:12;;;;;;;6.47;1.85;;;;;;;13.66;66.51;100187.97;4973780;28;20763;-63
2021/05/14 05:32:40;;;;;;;6.38;2.17;;;;;;;13.34;67.54;100188.88;4956715;28;20051;-62
2021/05/14 05:35:08;;;;;;;8.13;2.38;;;;;;;13.73;66.24;100198.44;4955882;28;20046;-67
2021/05/14 05:37:35;;;;;;;8.65;1.83;;;;;;;13.52;67.67;100193.84;4955896;28;20051;-64
2021/05/14 05:40:04;;;;;;;8.02;2.08;;;;;;;13.54;66.72;100197.09;4956228;28;20054;-65
2021/05/14 05:42:31;;;;;;;9.82;2.13;;;;;;;13.46;67.44;100194.41;4973256;28;20051;-63
2021/05/14 05:44:59;;;;;;;6.28;1.80;;;;;;;13.85;66.30;100195.66;4972905;28;20487;-66
2021/05/14 05:47:29;;;;;;;5.65;2.05;;;;;;;13.95;65.96;100198.78;4955470;28;20395;-65
2021/05/14 05:49:56;;;;;;;;;;;;;;;13.37;66.84;100199.25;4973435;28;20384;-63
2021/05/14 05:52:24;;;;;;;6.50;2.58;;;;;;;13.56;67.70;100196.72;4972984;28;19933;-65
2021/05/14 05:54:52;;;;;;;6.70;2.35;;;;;;;13.50;67.30;100198.09;4972736;28;20054;-70
2021/05/14 05:57:19;;;;;;;9.60;2.20;;;;;;;13.59;66.24;100201.56;4972774;28;20061;-68
2021/05/14 05:59:46;;;;;;;6.25;2.00;;;;;;;13.41;67.33;100200.97;4955200;28;20059;-67
2021/05/14 06:02:14;;;;;;;9.60;2.33;;;;;;;13.55;67.35;100201.47;4972933;28;20070;-66
2021/05/14 06:04:42;;;;;;;6.05;2.60;;;;;;;14.07;66.46;100197.97;4955632;28;20486;-67
2021/05/14 06:07:11;;;;;;;10.27;2.50;;;;;;;13.74;65.43;100206.41;4974360;28;20054;-66
2021/05/14 06:09:40;;;;;;;6.10;2.20;;;;;;;13.77;66.43;100210.44;4973962;28;20518;-64
2021/05/14 06:12:08;;;;;;;10.55;2.28;;;;;;;13.73;66.64;100201.22;4955948;28;20046;-66
2021/05/14 06:14:37;;;;;;;5.78;1.90;;;;;;;13.89;65.87;100207.66;4954956;28;20047;-67
2021/05/14 06:17:11;;;;;;;9.38;2.30;;;;;;;13.65;66.06;100216.00;4972293;28;20523;-65
2021/05/14 06:19:47;;;;;;;11.23;2.53;;;;;;;13.66;67.41;100214.81;4972347;28;20047;-68
2021/05/14 06:22:15;;;;;;;10.57;2.60;;;;;;;13.41;66.86;100216.78;4971769;28;20046;-66
2021/05/14 06:24:42;;;;;;;9.10;2.40;;;;;;;13.40;66.84;100221.50;4972657;28;20057;-62
2021/05/14 06:27:10;;;;;;;8.40;2.78;;;;;;;14.02;67.23;100225.88;4971892;28;20057;-65
2021/05/14 06:29:37;;;;;;;7.35;3.22;;;;;;;14.38;65.62;100225.84;4972243;28;20042;-66
2021/05/14 06:32:05;;;;;;;14.93;4.70;;;;;;;14.03;64.76;100224.72;4972451;28;20061;-69
2021/05/14 06:34:32;;;;;;;7.38;2.78;;;;;;;14.04;65.04;100218.03;4955511;28;20062;-66
2021/05/14 06:36:59;;;;;;;5.55;2.00;;;;;;;13.60;65.94;100221.75;4971871;28;20058;-68
2021/05/14 06:39:27;;;;;;;12.35;2.33;;;;;;;13.84;66.37;100224.53;4971946;28;20054;-65
2021/05/14 06:41:54;;;;;;;9.45;2.55;;;;;;;13.50;66.89;100229.34;4971463;28;20065;-65
2021/05/14 06:44:22;;;;;;;7.80;2.20;;;;;;;14.09;65.98;100228.84;4972186;28;20059;-69
2021/05/14 06:46:50;;;;;;;9.13;2.63;;;;;;;14.32;64.94;100238.31;4970924;28;20062;-63
2021/05/14 06:49:18;;;;;;;9.20;2.45;;;;;;;14.09;64.85;100237.97;4973337;28;20047;-63
2021/05/14 06:51:45;;;;;;;11.65;2.72;;;;;;;13.97;65.68;100245.50;4971798;28;20411;-66
2021/05/14 06:54:12;;;;;;;7.53;2.55;;;;;;;14.06;66.31;100249.75;4971624;28;20392;-67
2021/05/14 06:56:40;;;;;;;8.05;2.42;;;;;;;14.52;66.25;100259.53;4970499;28;20114;-65
2021/05/14 06:59:11;;;;;;;12.75;5.45;;;;;;;14.88;70.06;100261.34;4971568;28;20057;-64
2021/05/14 07:01:39;;;;;;;11.50;4.63;;;;;;;14.55;68.98;100256.06;4954774;28;20047;-67
2021/05/14 07:04:07;;;;;;;11.00;3.72;;;;;;;14.24;67.29;100259.41;4952844;28;20054;-66
2021/05/14 07:06:34;;;;;;;7.55;2.88;;;;;;;13.77;68.57;100258.31;4970266;28;20050;-64
2021/05/14 07:09:03;;;;;;;10.05;2.65;;;;;;;14.08;74.20;100266.03;4954278;28;20078;-65
2021/05/14 07:11:30;;;;;;;9.00;3.10;;;;;;;14.24;71.70;100272.47;4963069;28;20051;-66
2021/05/14 07:13:58;;;;;;;14.05;3.80;;;;;;;14.52;70.83;100267.84;4974198;28;20042;-64
2021/05/14 07:16:27;;;;;;;8.68;2.85;;;;;;;14.82;73.02;100269.13;4961649;28;20050;-65
2021/05/14 07:18:55;;;;;;;10.65;2.45;;;;;;;14.81;71.39;100266.69;4954471;28;20053;-67
2021/05/14 07:21:24;;;;;;;13.35;3.00;;;;;;;14.92;70.17;100267.81;4970882;28;20067;-69
2021/05/14 07:23:54;;;;;;;10.95;3.33;;;;;;;15.03;69.84;100266.94;4952003;28;20184;-65
2021/05/14 07:26:25;;;;;;;11.88;3.10;;;;;;;14.94;66.70;100274.59;4960044;28;20388;-65
2021/05/14 07:28:52;;;;;;;5.75;2.55;;;;;;;14.81;68.22;100272.25;4976329;28;20498;-65
2021/05/14 07:31:21;;;;;;;6.30;2.30;;;;;;;13.87;65.96;100273.66;4950264;28;20051;-64
2021/05/14 07:33:49;;;;;;;9.13;2.60;;;;;;;13.53;67.47;100277.66;4969019;28;20047;-64
2021/05/14 07:36:16;;;;;;;10.82;2.70;;;;;;;13.44;67.46;100285.28;4954894;28;20043;-63
2021/05/14 07:38:43;;;;;;;6.30;2.50;;;;;;;13.41;67.09;100278.44;4969740;28;20058;-64
2021/05/14 07:41:12;;;;;;;9.38;2.13;;;;;;;13.23;67.51;100281.75;4953299;28;20038;-64
2021/05/14 07:43:39;;;;;;;7.55;2.58;;;;;;;13.14;67.84;100281.03;4969663;28;20516;-63
2021/05/14 07:46:08;;;;;;;11.90;2.97;;;;;;;13.10;68.45;100291.97;4969296;28;20043;-63
2021/05/14 07:48:36;;;;;;;11.05;2.47;;;;;;;13.07;68.95;100284.34;4937368;28;20050;-62
2021/05/14 07:51:03;;;;;;;8.07;3.13;;;;;;;13.25;71.62;100293.28;4967360;28;20053;-64
2021/05/14 07:53:31;;;;;;;9.80;3.80;;;;;;;13.41;70.80;100295.03;4952486;28;20043;-66
2021/05/14 07:55:58;;;;;;;8.38;2.72;;;;;;;13.14;71.94;100294.84;4970425;28;20433;-68
2021/05/14 07:58:26;;;;;;;9.40;2.50;;;;;;;13.08;73.14;100307.25;4969453;28;20043;-65
2021/05/14 08:00:54;;;;;;;10.13;2.63;;;;;;;13.15;73.15;100307.53;4951138;28;20051;-64
2021/05/14 08:03:22;;;;;;;11.70;2.20;;;;;;;13.11;73.69;100304.63;4952302;28;20058;-65
2021/05/14 08:05:53;;;;;;;9.48;2.22;;;;;;;13.21;72.82;100304.22;4951030;28;20059;-66
2021/05/14 08:08:24;;;;;;;7.03;2.85;;;;;;;13.82;73.11;100313.47;4938452;28;20054;-66
2021/05/14 08:10:56;;;;;;;;;;;;;;;14.13;72.39;100312.88;4964440;28;20491;-65
2021/05/14 08:13:25;;;;;;;6.65;1.67;;;;;;;13.62;73.62;100313.53;4940126;28;19926;-68
2021/05/14 08:15:52;;;;;;;7.85;2.63;;;;;;;13.94;75.27;100310.69;4966946;28;20213;-62
2021/05/14 08:18:21;;;;;;;7.88;2.53;;;;;;;14.09;73.16;100311.94;4967597;28;20050;-67
2021/05/14 08:20:49;;;;;;;7.05;1.60;;;;;;;13.88;73.99;100314.03;4953661;28;20050;-68
2021/05/14 08:23:20;;;;;;;4.90;1.92;;;;;;;14.04;71.82;100313.00;4966263;28;20062;-64
2021/05/14 08:25:48;;;;;;;;;;;;;;;13.50;72.06;100314.31;4939771;28;20061;-63
2021/05/14 08:28:16;;;;;;;5.97;1.50;;;;;;;13.46;72.68;100321.66;4969617;28;19922;-63
2021/05/14 08:30:45;;;;;;;6.43;1.95;;;;;;;13.24;73.48;100322.06;4960597;28;20506;-66
2021/05/14 08:33:13;;;;;;;7.32;1.58;;;;;;;13.09;74.67;100323.50;4959243;28;20406;-66
2021/05/14 08:35:41;;;;;;;9.43;1.80;;;;;;;13.45;72.75;100320.06;4970220;28;20081;-64
2021/05/14 08:38:10;;;;;;;9.48;3.53;;;;;;;13.27;72.83;100324.16;4970850;28;20061;-70
2021/05/14 08:40:38;;;;;;;11.13;7.78;;;;;;;13.27;72.52;100324.16;4970995;28;20066;-67
2021/05/14 08:43:11;;;;;;;12.57;5.13;;;;;;;13.41;73.81;100316.34;4960642;28;20479;-66
2021/05/14 08:45:40;;;;;;;4.18;1.70;;;;;;;13.66;73.93;100312.50;4970761;28;20054;-63
2021/05/14 08:48:13;;;;;;;15.65;1.73;;;;;;;13.64;71.94;100314.81;4960225;28;20051;-63
2021/05/14 08:50:41;;;;;;;5.07;1.40;;;;;;;13.38;71.24;100323.41;4970830;28;20076;-69
2021/05/14 08:53:29;;;;;;;4.40;1.30;;;;;;;13.54;71.58;100321.59;4970584;28;20364;-65
2021/05/14 08:55:57;;;;;;;5.18;1.50;;;;;;;13.67;72.11;100325.19;4971316;28;20049;-69
2021/05/14 08:58:26;;;;;;;3.08;1.30;;;;;;;13.64;71.59;100328.66;4961907;28;20357;-63
2021/05/14 09:00:54;;;;;;;4.65;1.35;;;;;;;13.77;73.13;100326.72;4974363;28;20501;-65
2021/05/14 09:03:25;;;;;;;5.68;1.63;;;;;;;13.92;70.70;100326.84;4971550;28;20050;-68
2021/05/14 09:05:53;;;;;;;7.75;2.03;;;;;;;13.72;71.00;100324.94;4972353;28;20411;-64
2021/05/14 09:08:31;;;;;;;7.38;1.70;;;;;;;14.30;71.58;100316.25;4973116;28;20055;-67
2021/05/14 09:10:59;;;;;;;4.03;1.50;;;;;;;14.59;69.90;100329.03;4973548;28;20402;-62
2021/05/14 09:13:39;;;;;;;4.53;1.67;;;;;;;14.57;68.63;100323.03;4971898;28;20051;-66
2021/05/14 09:16:06;;;;;;;2.25;1.23;;;;;;;14.38;68.61;100323.63;4968456;28;20039;-63
2021/05/14 09:18:34;;;;;;;7.50;1.83;;;;;;;14.60;69.24;100319.56;4969432;28;20050;-65
2021/05/14 09:21:03;;;;;;;8.88;2.05;;;;;;;14.99;69.63;100317.94;4971461;28;20407;-64
2021/05/14 09:23:32;;;;;;;4.00;1.60;;;;;;;14.98;66.99;100322.66;4959522;28;20503;-65
2021/05/14 09:26:30;;;;;;;8.53;2.33;;;;;;;14.90;65.57;100325.59;4969237;28;20050;-66
2021/05/14 09:28:57;;;;;;;11.23;3.65;;;;;;;14.88;67.84;100319.59;4968947;28;20055;-68
2021/05/14 09:31:28;;;;;;;7.05;2.47;;;;;;;14.97;65.88;100317.47;4970138;28;20043;-64
2021/05/14 09:33:58;;;;;;;6.07;2.22;;;;;;;14.93;65.28;100324.88;4969319;28;20511;-69
2021/05/14 09:36:30;;;;;;;7.10;2.65;;;;;;;15.02;64.86;100317.22;4969543;28;20062;-67
2021/05/14 09:39:03;;;;;;;8.10;2.30;;;;;;;14.89;65.60;100318.44;4968910;28;20054;-65
2021/05/14 09:41:35;;;;;;;6.05;2.10;;;;;;;15.04;66.29;100315.72;4960070;28;20047;-65
2021/05/14 09:44:07;;;;;;;5.97;2.13;;;;;;;15.20;65.06;100319.34;4958414;28;20055;-64
2021/05/14 09:46:48;;;;;;;6.30;2.30;;;;;;;15.15;65.23;100319.59;4970076;28;20051;-67
2021/05/14 09:49:18;;;;;;;7.38;2.30;;;;;;;15.24;64.62;100311.94;4970025;28;20452;-67
2021/05/14 09:52:03;;;;;;;7.63;2.00;;;;;;;14.77;62.18;100319.28;4970606;28;20051;-64
2021/05/14 09:54:42;;;;;;;5.57;2.00;;;;;;;14.81;63.81;100311.06;4956242;28;20486;-67
2021/05/14 10:00:04;;;;;;;5.03;2.15;;;;;;;15.14;63.51;100314.41;4959080;28;20054;-65
2021/05/14 10:02:33;;;;;;;4.72;1.88;;;;;;;15.53;64.20;100310.78;4967536;28;20047;-64
2021/05/14 10:05:04;;;;;;;5.05;2.10;;;;;;;15.68;61.58;100316.34;4958493;28;20043;-69
2021/05/14 10:07:32;;;;;;;6.93;2.15;;;;;;;15.41;62.37;100308.06;4958450;28;20055;-64
2021/05/14 10:10:02;;;;;;;5.53;2.03;;;;;;;15.82;62.45;100307.56;4959715;28;20054;-65
2021/05/14 10:12:30;;;;;;;5.43;2.20;;;;;;;16.06;60.34;100303.78;4959586;28;20058;-67
2021/05/14 10:14:58;;;;;;;7.95;3.10;;;;;;;15.82;60.07;100303.97;4944454;28;20049;-67
2021/05/14 10:17:26;;;;;;;7.25;2.22;;;;;;;15.64;59.76;100296.00;4968861;28;20081;-68
2021/05/14 10:19:55;;;;;;;7.22;2.20;;;;;;;15.37;61.63;100296.03;4960402;28;20051;-67
2021/05/14 10:22:30;;;;;;;4.13;1.80;;;;;;;15.01;63.28;100305.31;4968999;28;20043;-67
2021/05/14 10:24:58;;;;;;;4.93;1.95;;;;;;;15.24;62.21;100305.56;4959833;28;20058;-65
2021/05/14 10:27:27;;;;;;;3.88;1.90;;;;;;;15.54;61.47;100302.09;4969088;28;20055;-65
2021/05/14 10:30:00;;;;;;;6.95;2.20;;;;;;;15.49;62.39;100299.56;4969287;28;20061;-66
2021/05/14 10:32:43;;;;;;;7.00;2.45;;;;;;;15.78;61.87;100296.38;4968974;28;20058;-66
2021/05/14 10:35:15;;;;;;;5.60;2.42;;;;;;;15.63;62.12;100296.38;4953824;28;20043;-69
2021/05/14 10:38:01;;;;;;;5.18;1.73;;;;;;;15.72;61.39;100283.94;4968449;28;20061;-69
2021/05/14 10:40:32;;;;;;;5.63;1.90;;;;;;;15.54;60.92;100284.63;4958969;28;20058;-69
2021/05/14 10:43:18;;;;;;;6.32;2.10;;;;;;;15.62;60.64;100278.09;4968661;28;20050;-69
2021/05/14 10:45:59;;;;;;;5.13;2.17;;;;;;;16.13;59.07;100281.72;4968890;28;20058;-64
2021/05/14 10:48:27;;;;;;;6.22;1.60;;;;;;;16.06;59.10;100273.22;4957513;28;20051;-61
2021/05/14 10:50:59;;;;;;;6.20;2.53;;;;;;;15.94;59.25;100276.91;4956580;28;20507;-64
2021/05/14 10:53:37;;;;;;;9.90;3.25;;;;;;;16.01;58.19;100287.38;4966805;28;20047;-66
2021/05/14 10:56:10;;;;;;;7.90;2.13;;;;;;;15.67;60.13;100291.72;4968178;28;20391;-67
2021/05/14 10:58:41;;;;;;;6.22;2.50;;;;;;;15.81;62.89;100291.25;4968616;28;20064;-68
2021/05/14 11:01:27;;;;;;;5.65;1.70;;;;;;;15.59;64.84;100301.00;4967838;28;20054;-64
2021/05/14 11:03:55;;;;;;;4.28;1.40;;;;;;;15.26;65.41;100292.16;4967642;28;20050;-64
2021/05/14 11:06:22;;;;;;;5.38;1.30;;;;;;;15.37;66.39;100294.06;4967836;28;20061;-63
2021/05/14 11:09:01;;;;;;;6.22;1.52;;;;;;;15.44;67.75;100297.06;4957238;28;20383;-62
2021/05/14 11:11:59;;;;;;;5.95;2.20;;;;;;;15.42;66.98;100301.34;4967701;28;20077;-68
2021/05/14 11:14:38;;;;;;;5.30;2.05;;;;;;;15.28;66.39;100298.97;4967809;28;20059;-64
2021/05/14 11:17:11;;;;;;;3.22;1.10;;;;;;;15.31;64.55;100305.75;4968598;28;20058;-64
2021/05/14 11:19:49;;;;;;;3.95;1.20;;;;;;;15.04;65.77;100301.88;4965345;28;20053;-62
2021/05/14 11:22:23;;;;;;;2.13;0.98;;;;;;;15.13;66.96;100308.03;4957712;28;20054;-64
2021/05/14 11:25:05;;;;;;;2.95;1.30;;;;;;;15.50;66.07;100300.38;4957981;28;20054;-64
2021/05/14 11:27:34;;;;;;;10.25;2.50;;;;;;;15.78;66.39;100292.78;4936706;28;20057;-68
2021/05/14 11:30:07;;;;;;;6.10;1.75;;;;;;;15.88;67.15;100294.22;4956974;28;20049;-69
2021/05/14 11:32:38;;;;;;;20.90;6.00;;;;;;;16.28;65.58;100289.25;4967959;28;20224;-66
2021/05/14 11:35:13;;;;;;;3.80;1.45;;;;;;;16.20;65.02;100288.25;4958860;28;20063;-67
2021/05/14 11:37:56;;;;;;;10.80;2.95;;;;;;;16.25;64.32;100285.19;4957466;28;20418;-69
2021/05/14 11:40:34;;;;;;;14.60;4.88;;;;;;;16.15;65.24;100285.78;4955146;28;20267;-66
2021/05/14 11:43:07;;;;;;;8.40;2.17;;;;;;;16.45;62.53;100283.28;4967752;28;20061;-65